Time;durP1;ratioP1;P1;durP2;ratioP2;P2;SDS_P1;SDS_P2;PMS_P1;PMS_P2;Temp;Humidity;BMP_temperature;BMP_pressure;BME280_temperature;BME280_humidity;BME280_pressure;Samples;Min_cycle;Max_cycle;Signal;HPM_P1;HPM_P2
2022/09/28 00:00:07;;;;;;;24.45;20.02;;;26.10;99.90;;;;;;2034589;70;21108;-82
2022/09/28 00:02:38;;;;;;;23.35;19.95;;;26.10;99.90;;;;;;2023544;70;21674;-82
2022/09/28 00:05:11;;;;;;;24.90;19.15;;;26.00;99.90;;;;;;2029124;70;21155;-81
2022/09/28 00:07:41;;;;;;;22.65;20.15;;;26.00;99.90;;;;;;2027777;70;21537;-81
2022/09/28 00:10:12;;;;;;;25.43;19.20;;;26.00;99.90;;;;;;2029547;70;21192;-81
2022/09/28 00:12:42;;;;;;;22.93;20.32;;;26.00;99.90;;;;;;2024834;70;21165;-73
2022/09/28 00:15:14;;;;;;;26.52;20.70;;;26.00;99.90;;;;;;2024479;70;21567;-78
2022/09/28 00:17:45;;;;;;;29.00;22.48;;;26.00;99.90;;;;;;2028627;70;21119;-75
2022/09/28 00:20:16;;;;;;;25.20;22.05;;;25.90;99.90;;;;;;2016138;70;21155;-74
2022/09/28 00:22:47;;;;;;;23.92;21.30;;;25.90;99.90;;;;;;2026251;70;21637;-74
2022/09/28 00:25:20;;;;;;;29.63;21.60;;;25.90;99.90;;;;;;2024274;70;21525;-73
2022/09/28 00:27:51;;;;;;;27.17;22.60;;;25.90;99.90;;;;;;2023932;70;21127;-81
2022/09/28 00:30:21;;;;;;;23.62;20.85;;;25.90;99.90;;;;;;2030409;70;21127;-81
2022/09/28 00:32:52;;;;;;;25.10;22.13;;;25.90;99.90;;;;;;2037688;70;21127;-83
2022/09/28 00:35:23;;;;;;;24.67;20.95;;;25.80;99.90;;;;;;2029588;70;21180;-82
2022/09/28 00:37:54;;;;;;;24.92;21.45;;;25.80;99.90;;;;;;2027783;70;21144;-80
2022/09/28 00:40:24;;;;;;;29.48;23.10;;;25.80;99.90;;;;;;2026327;70;21103;-80
2022/09/28 00:42:55;;;;;;;25.20;22.60;;;25.70;99.90;;;;;;2028708;70;21181;-81
2022/09/28 00:45:26;;;;;;;29.02;22.90;;;25.70;99.90;;;;;;2025775;70;21115;-79
2022/09/28 00:47:59;;;;;;;26.90;24.07;;;25.70;99.90;;;;;;2023134;70;21374;-79
2022/09/28 00:50:32;;;;;;;24.47;21.87;;;25.80;99.90;;;;;;2028877;69;21593;-80
2022/09/28 00:53:05;;;;;;;25.70;21.50;;;25.80;99.90;;;;;;2025263;70;21073;-79
2022/09/28 00:55:38;;;;;;;25.48;22.50;;;25.70;99.90;;;;;;2013340;70;21149;-80
2022/09/28 00:58:14;;;;;;;26.57;22.10;;;25.70;99.90;;;;;;2025826;70;21170;-81
2022/09/28 01:00:45;;;;;;;29.27;22.10;;;25.80;99.90;;;;;;2022848;70;21751;-80
2022/09/28 01:03:17;;;;;;;25.88;23.07;;;25.80;99.90;;;;;;2027568;70;21211;-81
2022/09/28 01:05:49;;;;;;;24.65;22.02;;;25.80;99.90;;;;;;1951566;71;21234;-81
2022/09/28 01:08:22;;;;;;;24.37;21.50;;;25.80;99.90;;;;;;2024164;70;21112;-80
2022/09/28 01:10:53;;;;;;;26.65;21.60;;;25.80;99.90;;;;;;2035567;70;21127;-81
2022/09/28 01:13:25;;;;;;;25.75;21.77;;;25.80;99.90;;;;;;2017079;70;21165;-82
2022/09/28 01:15:58;;;;;;;25.23;21.55;;;25.90;99.90;;;;;;2015952;70;21148;-81
2022/09/28 01:18:28;;;;;;;23.87;20.70;;;25.90;99.90;;;;;;2017517;70;21131;-80
2022/09/28 01:21:01;;;;;;;23.70;21.15;;;25.90;99.90;;;;;;1978303;72;21093;-79
2022/09/28 01:23:34;;;;;;;24.15;20.70;;;25.90;99.90;;;;;;2020342;70;21113;-80
2022/09/28 01:26:07;;;;;;;26.02;22.40;;;25.90;99.90;;;;;;2018356;70;21564;-80
2022/09/28 01:28:39;;;;;;;26.70;21.17;;;25.90;99.90;;;;;;2012838;70;21231;-81
2022/09/28 01:34:05;;;;;;;24.07;21.07;;;25.90;99.90;;;;;;1927585;73;21207;-80
2022/09/28 01:36:38;;;;;;;26.00;21.97;;;25.90;99.90;;;;;;1921256;73;21132;-81
2022/09/28 01:39:11;;;;;;;27.62;22.85;;;25.90;99.90;;;;;;1923497;73;21115;-82
2022/09/28 01:41:44;;;;;;;29.92;21.90;;;25.90;99.90;;;;;;1915876;73;21077;-83
2022/09/28 01:44:17;;;;;;;26.95;21.90;;;25.90;99.90;;;;;;1921225;73;21108;-81
2022/09/28 01:46:51;;;;;;;27.05;22.48;;;25.90;99.90;;;;;;1920990;73;21131;-82
2022/09/28 01:49:22;;;;;;;24.60;21.95;;;25.90;99.90;;;;;;1922269;73;21361;-82
2022/09/28 01:51:55;;;;;;;28.30;22.87;;;25.90;99.90;;;;;;1922306;73;21139;-83
2022/09/28 01:54:30;;;;;;;29.45;22.70;;;25.90;99.90;;;;;;1920894;73;21131;-82
2022/09/28 01:57:02;;;;;;;26.35;22.65;;;25.90;99.90;;;;;;1918430;73;21688;-82
2022/09/28 01:59:35;;;;;;;27.05;22.55;;;25.90;99.90;;;;;;1910949;73;21291;-80
2022/09/28 02:02:08;;;;;;;25.97;21.93;;;25.90;99.90;;;;;;1919069;73;21653;-82
2022/09/28 02:04:41;;;;;;;24.60;22.02;;;26.00;99.90;;;;;;1921795;73;21158;-82
2022/09/28 02:07:14;;;;;;;26.05;21.62;;;26.00;99.90;;;;;;1925812;72;21163;-82
2022/09/28 02:09:48;;;;;;;25.90;21.77;;;26.00;99.90;;;;;;1926801;73;21107;-81
2022/09/28 02:12:21;;;;;;;22.98;20.57;;;26.00;99.90;;;;;;1922940;73;21061;-83
2022/09/28 02:14:54;;;;;;;27.65;21.12;;;26.00;99.90;;;;;;1928250;73;21580;-81
2022/09/28 02:17:25;;;;;;;23.77;21.15;;;26.10;99.90;;;;;;1866212;75;21092;-80
2022/09/28 02:19:56;;;;;;;28.00;21.90;;;26.10;99.90;;;;;;1948137;72;21167;-82
2022/09/28 02:22:29;;;;;;;24.30;21.12;;;26.10;99.90;;;;;;1936650;72;21621;-81
2022/09/28 02:25:02;;;;;;;26.65;21.07;;;26.20;99.90;;;;;;1925723;72;21046;-82
2022/09/28 02:27:34;;;;;;;24.92;20.95;;;26.20;99.90;;;;;;1920941;72;21107;-82
2022/09/28 02:30:06;;;;;;;25.30;21.48;;;26.20;99.90;;;;;;1915967;72;21653;-82
2022/09/28 02:32:41;;;;;;;25.48;21.02;;;26.30;99.90;;;;;;1924338;73;21166;-80
2022/09/28 02:35:15;;;;;;;23.87;21.27;;;26.30;99.90;;;;;;1893676;74;21120;-82
2022/09/28 02:37:46;;;;;;;24.10;20.92;;;26.30;99.90;;;;;;1937417;72;21087;-81
2022/09/28 02:40:20;;;;;;;23.85;21.27;;;26.30;99.90;;;;;;1923692;72;21128;-81
2022/09/28 02:42:56;;;;;;;25.05;20.90;;;26.30;99.90;;;;;;1934488;72;21163;-81
2022/09/28 02:45:29;;;;;;;25.27;21.30;;;26.30;99.90;;;;;;1930491;72;21107;-81
2022/09/28 02:48:00;;;;;;;26.07;21.37;;;26.30;99.90;;;;;;1933092;73;21073;-81
2022/09/28 02:50:33;;;;;;;24.18;21.02;;;26.30;99.90;;;;;;1921481;72;21144;-81
2022/09/28 02:53:06;;;;;;;24.43;21.68;;;26.20;99.90;;;;;;1925148;73;21504;-81
2022/09/28 02:55:38;;;;;;;22.58;20.15;;;26.20;99.90;;;;;;1935160;72;21160;-82
2022/09/28 02:58:09;;;;;;;23.22;20.40;;;26.20;99.90;;;;;;1931258;73;21151;-81
2022/09/28 03:00:42;;;;;;;23.30;19.73;;;26.20;99.90;;;;;;1927229;73;21036;-82
2022/09/28 03:03:16;;;;;;;22.90;20.40;;;26.30;99.90;;;;;;1931481;73;21077;-82
2022/09/28 03:05:47;;;;;;;20.85;18.65;;;26.30;99.90;;;;;;1924143;73;21106;-82
2022/09/28 03:08:18;;;;;;;20.62;18.23;;;26.30;99.90;;;;;;1946265;73;21037;-81
2022/09/28 03:10:51;;;;;;;22.32;19.65;;;26.20;99.90;;;;;;1933541;73;21100;-81
2022/09/28 03:13:25;;;;;;;23.32;17.80;;;26.30;99.90;;;;;;1930719;72;21657;-81
2022/09/28 03:15:58;;;;;;;19.87;17.77;;;26.30;99.90;;;;;;1935949;72;21100;-82
2022/09/28 03:18:29;;;;;;;23.22;19.65;;;26.30;99.90;;;;;;1930933;72;21121;-81
2022/09/28 03:21:00;;;;;;;23.67;18.40;;;26.20;99.90;;;;;;1931327;72;21208;-81
2022/09/28 03:23:31;;;;;;;24.37;18.85;;;26.20;99.90;;;;;;1938972;73;21096;-82
2022/09/28 03:26:03;;;;;;;19.62;17.62;;;26.20;99.90;;;;;;1930599;73;21116;-81
2022/09/28 03:28:35;;;;;;;21.07;18.25;;;26.20;99.90;;;;;;1928546;73;21033;-81
2022/09/28 03:31:05;;;;;;;20.72;18.52;;;26.20;99.90;;;;;;1926280;73;21112;-81
2022/09/28 03:33:36;;;;;;;23.27;19.00;;;26.20;99.90;;;;;;1923504;72;21585;-80
2022/09/28 03:36:08;;;;;;;23.92;18.90;;;26.20;99.90;;;;;;1929969;74;21123;-81
2022/09/28 03:38:39;;;;;;;19.62;17.57;;;26.20;99.90;;;;;;1935640;72;21543;-82
2022/09/28 03:41:10;;;;;;;22.30;19.55;;;26.10;99.90;;;;;;1934640;72;21094;-81
2022/09/28 03:43:41;;;;;;;23.10;19.50;;;26.10;99.90;;;;;;1941788;72;21136;-81
2022/09/28 03:46:11;;;;;;;20.70;18.10;;;26.10;99.90;;;;;;1937323;72;21116;-81
2022/09/28 03:48:42;;;;;;;21.17;18.98;;;26.10;99.90;;;;;;1938830;72;21307;-82
2022/09/28 03:51:13;;;;;;;24.00;19.45;;;26.10;99.90;;;;;;1936497;72;21081;-82
2022/09/28 03:53:44;;;;;;;23.32;19.67;;;26.10;99.90;;;;;;1947394;72;21887;-81
2022/09/28 03:56:16;;;;;;;23.60;20.72;;;26.10;99.90;;;;;;1950371;72;21240;-82
2022/09/28 03:58:47;;;;;;;23.20;20.27;;;26.10;99.90;;;;;;1936227;72;21611;-82
2022/09/28 04:01:18;;;;;;;23.98;20.00;;;26.10;99.90;;;;;;1943636;72;21053;-83
2022/09/28 04:03:51;;;;;;;26.27;20.77;;;26.20;99.90;;;;;;1939788;72;21565;-80
2022/09/28 04:06:22;;;;;;;24.12;20.82;;;26.20;99.90;;;;;;1953225;72;21112;-81
2022/09/28 04:08:53;;;;;;;24.00;20.62;;;26.20;99.90;;;;;;1944043;72;21911;-82
2022/09/28 04:11:24;;;;;;;22.87;20.48;;;26.20;99.90;;;;;;1936998;72;21045;-81
2022/09/28 04:13:54;;;;;;;23.32;19.77;;;26.20;99.90;;;;;;1943157;72;21152;-82
2022/09/28 04:16:46;;;;;;;23.12;20.57;;;26.10;99.90;;;;;;1940627;72;21494;-81
2022/09/28 04:19:35;;;;;;;22.98;19.37;;;26.20;99.90;;;;;;1942639;72;21201;-82
2022/09/28 04:22:08;;;;;;;23.10;20.10;;;26.10;99.90;;;;;;1936852;72;21126;-81
2022/09/28 04:24:41;;;;;;;22.02;19.60;;;26.20;99.90;;;;;;1898955;74;21158;-82
2022/09/28 04:30:16;;;;;;;25.25;20.97;;;26.10;99.90;;;;;;1945578;72;21614;-82
2022/09/28 04:33:01;;;;;;;23.67;20.12;;;26.10;99.90;;;;;;1941050;72;21621;-82
2022/09/28 04:35:34;;;;;;;22.50;20.10;;;26.10;99.90;;;;;;1934585;72;21186;-83
2022/09/28 04:38:05;;;;;;;22.70;20.30;;;26.10;99.90;;;;;;1934234;72;21162;-81
2022/09/28 04:40:36;;;;;;;22.15;19.73;;;26.20;99.90;;;;;;1930076;72;21111;-81
2022/09/28 04:43:06;;;;;;;25.57;20.95;;;26.20;99.90;;;;;;1932204;72;21226;-82
2022/09/28 04:45:37;;;;;;;21.65;19.35;;;26.20;99.90;;;;;;1940460;72;21043;-82
2022/09/28 04:48:08;;;;;;;24.18;19.77;;;26.20;99.90;;;;;;1941529;73;21508;-82
2022/09/28 04:50:38;;;;;;;24.02;19.17;;;26.20;99.90;;;;;;1936073;73;21109;-82
2022/09/28 04:53:09;;;;;;;22.58;19.57;;;26.20;99.90;;;;;;1927111;72;21037;-82
2022/09/28 04:55:40;;;;;;;20.90;18.73;;;26.20;99.90;;;;;;1938778;72;21104;-82
2022/09/28 04:58:10;;;;;;;20.35;18.20;;;26.20;99.90;;;;;;1944592;73;21143;-81
2022/09/28 05:00:41;;;;;;;21.30;18.57;;;26.20;99.90;;;;;;1924360;73;21143;-81
2022/09/28 05:03:14;;;;;;;22.85;18.65;;;26.20;99.90;;;;;;1928834;72;21588;-82
2022/09/28 05:05:47;;;;;;;21.20;17.85;;;26.30;99.90;;;;;;1930909;73;21095;-83
2022/09/28 05:08:18;;;;;;;19.42;17.35;;;26.20;99.90;;;;;;1947030;73;21378;-82
2022/09/28 05:10:49;;;;;;;21.33;19.02;;;26.20;99.90;;;;;;1948948;73;21214;-82
2022/09/28 05:13:19;;;;;;;21.55;17.92;;;26.20;99.90;;;;;;1937277;73;22013;-82
2022/09/28 05:15:53;;;;;;;20.82;17.92;;;26.30;99.90;;;;;;1940252;72;21088;-81
2022/09/28 05:18:25;;;;;;;19.67;17.70;;;26.30;99.90;;;;;;1946068;72;21076;-81
2022/09/28 05:20:56;;;;;;;20.48;17.70;;;26.30;99.90;;;;;;1927105;72;21113;-82
2022/09/28 05:23:27;;;;;;;20.77;17.57;;;26.30;99.90;;;;;;1930482;73;21097;-80
2022/09/28 05:26:00;;;;;;;22.25;17.98;;;26.30;99.90;;;;;;1926170;72;21116;-82
2022/09/28 05:28:33;;;;;;;21.27;18.05;;;26.30;99.90;;;;;;1940108;72;21165;-79
2022/09/28 05:31:05;;;;;;;19.60;17.48;;;26.30;99.90;;;;;;1931252;72;21208;-80
2022/09/28 05:33:37;;;;;;;21.85;17.60;;;26.30;99.90;;;;;;1945517;72;21176;-80
2022/09/28 05:36:12;;;;;;;19.70;17.60;;;26.30;99.90;;;;;;1937507;72;21121;-80
2022/09/28 05:38:41;;;;;;;19.55;17.50;;;26.30;99.90;;;;;;1940639;72;21150;-80
2022/09/28 05:41:12;;;;;;;20.30;18.10;;;26.40;99.90;;;;;;1922967;73;21096;-81
2022/09/28 05:43:44;;;;;;;19.17;17.17;;;26.40;99.90;;;;;;1861962;75;21534;-84
2022/09/28 05:46:15;;;;;;;20.02;16.32;;;26.40;99.90;;;;;;1870193;75;21059;-82
2022/09/28 05:48:46;;;;;;;19.67;16.37;;;26.40;99.90;;;;;;1928318;72;21109;-83
2022/09/28 05:51:16;;;;;;;18.85;16.67;;;26.40;99.90;;;;;;1940621;73;21052;-81
2022/09/28 05:53:47;;;;;;;18.67;16.65;;;26.50;99.90;;;;;;1951876;72;21181;-83
2022/09/28 05:56:18;;;;;;;18.82;16.32;;;26.50;99.90;;;;;;1932495;72;21085;-82
2022/09/28 05:58:48;;;;;;;17.60;15.53;;;26.60;99.90;;;;;;1942656;73;21019;-81
2022/09/28 06:01:19;;;;;;;17.90;16.00;;;26.60;99.90;;;;;;1936546;73;21054;-81
2022/09/28 06:03:50;;;;;;;18.90;16.15;;;26.60;99.90;;;;;;1928951;73;21136;-81
2022/09/28 06:06:22;;;;;;;18.52;15.90;;;26.60;99.90;;;;;;1929385;72;21217;-81
2022/09/28 06:08:53;;;;;;;19.42;16.80;;;26.60;99.90;;;;;;1932106;73;21132;-81
2022/09/28 06:11:26;;;;;;;17.15;15.43;;;26.60;99.90;;;;;;1934053;72;21064;-81
2022/09/28 06:13:55;;;;;;;20.85;16.17;;;26.60;99.90;;;;;;1931116;72;21120;-81
2022/09/28 06:16:26;;;;;;;20.75;15.68;;;26.60;99.90;;;;;;1905944;72;21602;-81
2022/09/28 06:18:57;;;;;;;18.35;16.48;;;26.60;99.90;;;;;;1943066;72;21076;-81
2022/09/28 06:21:28;;;;;;;19.37;16.85;;;26.60;99.90;;;;;;1944688;73;21088;-83
2022/09/28 06:23:58;;;;;;;18.60;15.98;;;26.60;99.90;;;;;;1925349;73;21205;-82
2022/09/28 06:26:29;;;;;;;20.52;16.02;;;26.60;99.90;;;;;;1929250;73;21095;-80
2022/09/28 06:29:00;;;;;;;18.07;16.02;;;26.60;99.90;;;;;;1868112;75;21137;-83
2022/09/28 06:31:31;;;;;;;18.07;15.83;;;26.60;99.90;;;;;;1930884;73;21600;-82
2022/09/28 06:34:01;;;;;;;18.67;15.50;;;26.60;99.90;;;;;;1933873;72;21513;-81
2022/09/28 06:36:32;;;;;;;20.52;16.17;;;26.60;99.90;;;;;;1937664;72;21096;-82
2022/09/28 06:39:03;;;;;;;21.27;16.50;;;26.60;99.90;;;;;;1942099;72;21029;-83
2022/09/28 06:41:34;;;;;;;17.12;15.13;;;26.70;99.90;;;;;;1935863;72;21237;-82
2022/09/28 06:44:05;;;;;;;19.23;16.30;;;26.60;99.90;;;;;;1936514;72;21056;-81
2022/09/28 06:46:37;;;;;;;17.70;15.83;;;26.60;99.90;;;;;;1935702;72;21120;-83
2022/09/28 06:49:08;;;;;;;20.75;15.93;;;26.60;99.90;;;;;;1942923;72;21625;-84
2022/09/28 06:51:38;;;;;;;19.23;16.95;;;26.60;99.90;;;;;;1931541;72;21205;-82
2022/09/28 06:54:09;;;;;;;19.37;16.15;;;26.60;99.90;;;;;;1944145;72;21116;-80
2022/09/28 06:56:40;;;;;;;19.73;16.45;;;26.60;99.90;;;;;;1927948;72;21563;-81
2022/09/28 06:59:11;;;;;;;19.67;17.57;;;26.60;99.90;;;;;;1943332;72;21656;-81
2022/09/28 07:01:42;;;;;;;18.87;16.82;;;26.60;99.90;;;;;;1937685;72;21768;-80
2022/09/28 07:04:12;;;;;;;19.27;17.32;;;26.60;99.90;;;;;;1934302;72;21795;-81
2022/09/28 07:06:46;;;;;;;18.40;16.50;;;26.60;99.90;;;;;;1930459;72;21108;-82
2022/09/28 07:09:17;;;;;;;21.23;17.48;;;26.60;99.90;;;;;;1948779;72;21218;-81
2022/09/28 07:11:49;;;;;;;18.85;16.95;;;26.50;99.90;;;;;;1938682;72;21059;-81
2022/09/28 07:14:21;;;;;;;21.65;17.50;;;26.50;99.90;;;;;;1930616;72;21867;-80
2022/09/28 07:16:54;;;;;;;19.30;17.20;;;26.40;99.90;;;;;;1943935;72;21161;-82
2022/09/28 07:19:27;;;;;;;18.52;16.62;;;26.40;99.90;;;;;;1932197;72;21080;-81
2022/09/28 07:21:58;;;;;;;19.48;16.87;;;26.40;99.90;;;;;;1942553;72;21889;-82
2022/09/28 07:24:30;;;;;;;19.57;17.57;;;26.40;99.90;;;;;;1939028;72;21147;-82
2022/09/28 07:27:04;;;;;;;21.82;17.50;;;26.40;99.90;;;;;;1944522;72;21083;-83
2022/09/28 07:29:32;;;;;;;21.00;17.55;;;26.40;99.90;;;;;;1941694;72;21056;-83
2022/09/28 07:32:03;;;;;;;19.90;17.80;;;26.40;99.90;;;;;;1944246;72;21666;-82
2022/09/28 07:34:43;;;;;;;20.82;17.27;;;26.40;99.90;;;;;;1948288;72;21173;-81
2022/09/28 07:37:10;;;;;;;20.97;18.32;;;26.40;99.90;;;;;;1924524;72;21060;-81
2022/09/28 07:42:13;;;;;;;20.05;17.20;;;26.50;99.90;;;;;;1851936;75;21076;-84
2022/09/28 07:44:44;;;;;;;19.65;17.65;;;26.40;99.90;;;;;;1815697;77;21135;-81
2022/09/28 07:47:15;;;;;;;19.82;17.70;;;26.40;99.90;;;;;;1892831;75;21127;-82
2022/09/28 07:49:49;;;;;;;19.70;17.67;;;26.40;99.90;;;;;;1893104;74;21170;-81
2022/09/28 07:52:23;;;;;;;21.55;16.87;;;26.40;99.90;;;;;;1885443;74;21157;-82
2022/09/28 07:54:53;;;;;;;22.37;17.92;;;26.40;99.90;;;;;;1894069;74;21908;-69
2022/09/28 07:57:25;;;;;;;22.35;18.50;;;26.40;99.90;;;;;;1875903;75;21185;-71
2022/09/28 07:59:55;;;;;;;19.42;17.40;;;26.30;99.90;;;;;;1898930;74;21626;-72
2022/09/28 08:02:27;;;;;;;19.77;17.55;;;26.30;99.90;;;;;;1898461;74;21531;-73
2022/09/28 08:04:58;;;;;;;20.52;18.30;;;26.30;99.90;;;;;;1903939;74;21238;-73
2022/09/28 08:07:29;;;;;;;20.88;18.65;;;26.30;99.90;;;;;;1886692;74;21092;-73
2022/09/28 08:10:00;;;;;;;22.87;18.73;;;26.20;99.90;;;;;;1887036;74;21115;-72
2022/09/28 08:12:32;;;;;;;21.62;19.12;;;26.20;99.90;;;;;;1890984;74;21286;-73
2022/09/28 08:15:03;;;;;;;22.42;19.27;;;26.20;99.90;;;;;;1889553;74;21155;-73
2022/09/28 08:17:38;;;;;;;22.22;19.23;;;26.20;99.90;;;;;;1886372;75;21688;-74
2022/09/28 08:22:43;;;;;;;23.12;18.82;;;26.10;99.90;;;;;;1875151;74;21068;-72
2022/09/28 08:25:13;;;;;;;21.45;19.15;;;26.10;99.90;;;;;;1873545;75;21187;-73
2022/09/28 08:27:44;;;;;;;23.47;19.25;;;26.10;99.90;;;;;;1879293;75;21092;-73
2022/09/28 08:30:15;;;;;;;23.80;19.32;;;26.00;99.90;;;;;;1881056;75;21185;-72
2022/09/28 08:32:48;;;;;;;22.05;19.75;;;25.90;99.90;;;;;;1880231;75;21148;-73
2022/09/28 08:35:19;;;;;;;22.13;19.42;;;25.90;99.90;;;;;;1855583;75;21202;-73
2022/09/28 08:37:53;;;;;;;24.30;19.52;;;25.90;99.90;;;;;;1901876;74;21128;-74
2022/09/28 08:40:26;;;;;;;22.73;20.32;;;25.80;99.90;;;;;;1916802;74;21140;-73
2022/09/28 08:42:59;;;;;;;22.93;20.17;;;25.80;99.90;;;;;;1919235;74;21100;-73
2022/09/28 08:45:34;;;;;;;24.95;20.20;;;25.80;99.90;;;;;;1916604;74;21197;-74
2022/09/28 08:50:44;;;;;;;21.90;19.70;;;25.80;99.90;;;;;;1917192;74;21625;-73
2022/09/28 08:53:17;;;;;;;21.80;19.48;;;25.70;99.90;;;;;;1922448;74;21661;-74
2022/09/28 08:55:48;;;;;;;25.17;20.70;;;25.70;99.90;;;;;;1910803;74;21209;-73
2022/09/28 08:58:21;;;;;;;23.18;20.08;;;25.70;99.90;;;;;;1910737;74;21559;-74
2022/09/28 09:00:53;;;;;;;21.85;19.57;;;25.70;99.90;;;;;;1903758;74;21124;-72
2022/09/28 09:03:26;;;;;;;23.90;20.55;;;25.70;99.90;;;;;;1921683;74;21123;-73
2022/09/28 09:05:59;;;;;;;24.15;20.82;;;25.70;99.90;;;;;;1931431;74;21823;-72
2022/09/28 09:08:32;;;;;;;22.50;19.85;;;25.70;99.90;;;;;;1901364;74;21118;-73
2022/09/28 09:11:23;;;;;;;24.57;21.02;;;25.70;99.90;;;;;;1912013;74;21132;-74
2022/09/28 09:13:54;;;;;;;24.70;20.82;;;25.70;99.90;;;;;;1860966;76;21226;-74
2022/09/28 09:16:27;;;;;;;24.43;20.90;;;25.70;99.90;;;;;;1812789;77;21728;-73
2022/09/28 09:19:01;;;;;;;27.73;22.42;;;25.60;99.90;;;;;;1861914;75;21190;-74
2022/09/28 09:21:35;;;;;;;24.18;21.68;;;25.60;99.90;;;;;;1851473;76;21132;-73
2022/09/28 09:24:06;;;;;;;28.23;21.20;;;25.60;99.90;;;;;;1851868;76;21628;-73
2022/09/28 09:26:39;;;;;;;25.45;22.75;;;25.60;99.90;;;;;;1811141;77;21158;-73
2022/09/28 09:29:12;;;;;;;24.65;22.07;;;25.60;99.90;;;;;;1847209;76;21127;-76
2022/09/28 09:31:45;;;;;;;26.37;21.20;;;25.60;99.90;;;;;;1853159;76;21316;-73
2022/09/28 09:34:20;;;;;;;23.98;20.97;;;25.60;99.90;;;;;;1852436;76;21197;-73
2022/09/28 09:36:53;;;;;;;24.12;21.45;;;25.60;99.90;;;;;;1811435;77;21135;-73
2022/09/28 09:39:23;;;;;;;29.60;24.77;;;25.60;99.90;;;;;;1840537;76;21630;-73
2022/09/28 09:41:56;;;;;;;27.95;21.62;;;25.60;99.90;;;;;;1844131;76;21128;-72
2022/09/28 09:44:30;;;;;;;26.52;22.32;;;25.70;99.90;;;;;;1806611;78;21665;-72
2022/09/28 09:47:06;;;;;;;28.45;23.07;;;25.60;99.90;;;;;;1856510;76;21217;-72
2022/09/28 09:49:36;;;;;;;27.02;22.70;;;25.70;99.90;;;;;;1848216;76;21070;-72
2022/09/28 09:52:09;;;;;;;26.60;22.90;;;25.70;99.90;;;;;;1810034;78;21229;-74
2022/09/28 09:54:43;;;;;;;27.82;22.30;;;25.70;99.90;;;;;;1834866;76;21280;-72
2022/09/28 09:57:14;;;;;;;29.05;22.90;;;25.70;99.90;;;;;;1849477;76;21945;-73
2022/09/28 09:59:47;;;;;;;27.37;22.62;;;25.70;99.90;;;;;;1853368;76;21231;-72
2022/09/28 10:02:20;;;;;;;33.75;23.45;;;25.70;99.90;;;;;;1857116;76;21118;-72
2022/09/28 10:04:53;;;;;;;28.62;23.05;;;25.70;99.90;;;;;;1775245;78;21566;-73
2022/09/28 10:07:27;;;;;;;24.77;22.07;;;25.70;99.90;;;;;;1800581;78;21135;-72
2022/09/28 10:10:00;;;;;;;23.32;20.88;;;25.70;99.90;;;;;;1854010;75;21148;-72
2022/09/28 10:12:31;;;;;;;25.30;21.40;;;25.70;99.90;;;;;;1811094;77;21290;-72
2022/09/28 10:15:05;;;;;;;29.77;22.52;;;25.60;99.90;;;;;;1807689;77;21153;-72
2022/09/28 10:17:37;;;;;;;25.10;22.48;;;25.60;99.90;;;;;;1768239;79;21142;-72
2022/09/28 10:20:10;;;;;;;23.92;21.42;;;25.60;99.90;;;;;;1805954;78;21221;-73
2022/09/28 10:22:41;;;;;;;24.77;22.13;;;25.60;99.90;;;;;;1834915;77;21250;-72
2022/09/28 10:25:13;;;;;;;26.20;22.00;;;25.60;99.90;;;;;;1805056;77;21250;-73
2022/09/28 10:27:48;;;;;;;25.75;21.68;;;25.60;99.90;;;;;;1819522;78;21232;-71
2022/09/28 10:30:22;;;;;;;25.30;22.58;;;25.50;99.90;;;;;;1837392;75;21194;-72
2022/09/28 10:32:58;;;;;;;24.52;21.40;;;25.50;99.90;;;;;;1827628;77;21645;-73
2022/09/28 10:35:29;;;;;;;24.80;21.77;;;25.50;99.90;;;;;;1837894;76;21198;-72
2022/09/28 10:38:03;;;;;;;26.85;22.02;;;25.60;99.90;;;;;;1767808;80;21131;-73
2022/09/28 10:40:36;;;;;;;26.77;22.73;;;25.50;99.90;;;;;;1838309;77;21194;-72
2022/09/28 10:43:09;;;;;;;27.60;22.77;;;25.50;99.90;;;;;;1856921;76;21123;-72
2022/09/28 10:45:40;;;;;;;25.48;22.73;;;25.50;99.90;;;;;;1871957;74;21171;-73
2022/09/28 10:48:13;;;;;;;25.90;22.77;;;25.50;99.90;;;;;;1826025;77;21181;-72
2022/09/28 10:50:45;;;;;;;25.90;21.45;;;25.50;99.90;;;;;;1863501;75;21678;-73
2022/09/28 10:53:19;;;;;;;24.00;21.60;;;25.40;99.90;;;;;;1815814;77;21153;-72
2022/09/28 10:55:52;;;;;;;24.40;21.93;;;25.50;99.90;;;;;;1778034;79;21144;-73
2022/09/28 10:58:25;;;;;;;26.95;22.52;;;25.50;99.90;;;;;;1812887;78;21199;-72
2022/09/28 11:00:58;;;;;;;26.25;22.50;;;25.40;99.90;;;;;;1801818;78;21129;-72
2022/09/28 11:03:31;;;;;;;25.02;22.42;;;25.50;99.90;;;;;;1888888;75;21269;-73
2022/09/28 11:06:04;;;;;;;25.50;22.35;;;25.40;99.90;;;;;;1859678;76;21223;-72
2022/09/28 11:08:37;;;;;;;24.65;21.73;;;25.50;99.90;;;;;;1826734;76;21146;-72
2022/09/28 11:11:10;;;;;;;26.37;22.42;;;25.50;99.90;;;;;;1843442;76;21244;-73
2022/09/28 11:13:44;;;;;;;27.17;23.65;;;25.50;99.90;;;;;;1823542;78;21266;-73
2022/09/28 11:16:17;;;;;;;25.70;23.15;;;25.50;99.90;;;;;;1812758;79;21688;-72
2022/09/28 11:18:47;;;;;;;25.45;22.75;;;25.50;99.90;;;;;;1776976;79;21133;-72
2022/09/28 11:21:21;;;;;;;27.82;23.30;;;25.50;99.90;;;;;;1769042;79;21302;-72
2022/09/28 11:23:54;;;;;;;26.30;23.47;;;25.40;99.90;;;;;;1847811;76;21650;-73
2022/09/28 11:26:25;;;;;;;25.15;22.45;;;25.50;99.90;;;;;;1813001;77;21127;-73
2022/09/28 11:28:56;;;;;;;27.27;23.40;;;25.50;99.90;;;;;;1816569;77;21666;-72
2022/09/28 11:31:28;;;;;;;26.85;23.95;;;25.50;99.90;;;;;;1812595;77;21313;-72
2022/09/28 11:34:02;;;;;;;28.05;24.35;;;25.50;99.90;;;;;;1854992;75;21631;-72
2022/09/28 11:36:35;;;;;;;27.27;24.15;;;25.50;99.90;;;;;;1848173;76;21197;-73
2022/09/28 11:39:07;;;;;;;25.95;23.12;;;25.50;99.90;;;;;;1854240;76;21128;-73
2022/09/28 11:41:41;;;;;;;26.15;22.70;;;25.50;99.90;;;;;;1874760;76;21142;-71
2022/09/28 11:44:14;;;;;;;29.00;23.95;;;25.50;99.90;;;;;;1861455;75;21170;-72
2022/09/28 11:46:47;;;;;;;27.45;23.60;;;25.50;99.90;;;;;;1861246;76;21610;-73
2022/09/28 11:49:19;;;;;;;27.15;24.05;;;25.50;99.90;;;;;;1851131;76;21172;-73
2022/09/28 11:51:52;;;;;;;25.43;22.65;;;25.40;99.90;;;;;;1863800;76;21170;-73
2022/09/28 11:54:27;;;;;;;28.57;23.92;;;25.40;99.90;;;;;;1866344;76;21284;-75
2022/09/28 11:57:00;;;;;;;26.00;23.20;;;25.40;99.90;;;;;;1863481;76;21213;-73
2022/09/28 11:59:34;;;;;;;26.93;23.87;;;25.30;99.90;;;;;;1859292;76;21768;-74
2022/09/28 12:02:07;;;;;;;28.20;24.55;;;25.30;99.90;;;;;;1852058;76;21158;-74
2022/09/28 12:04:40;;;;;;;26.73;23.80;;;25.30;99.90;;;;;;1820736;78;21688;-74
2022/09/28 12:07:14;;;;;;;27.85;23.60;;;25.20;99.90;;;;;;1810368;78;21186;-74
2022/09/28 12:09:47;;;;;;;26.87;23.52;;;25.20;99.90;;;;;;1812055;77;21161;-74
2022/09/28 12:12:24;;;;;;;26.82;23.92;;;25.20;99.90;;;;;;1819368;77;22001;-74
2022/09/28 12:14:57;;;;;;;26.33;23.45;;;25.20;99.90;;;;;;1825229;77;21527;-73
2022/09/28 12:17:30;;;;;;;26.42;23.65;;;25.20;99.90;;;;;;1808631;79;21189;-74
2022/09/28 12:20:04;;;;;;;28.92;24.32;;;25.20;99.90;;;;;;1812974;78;21252;-73
2022/09/28 12:22:38;;;;;;;27.82;24.82;;;25.30;99.90;;;;;;1820201;78;21169;-73
2022/09/28 12:25:11;;;;;;;28.27;24.30;;;25.30;99.90;;;;;;1828686;77;21149;-73
2022/09/28 12:27:44;;;;;;;27.30;24.35;;;25.30;99.90;;;;;;1878272;76;21078;-73
2022/09/28 12:30:19;;;;;;;26.93;23.18;;;25.30;99.90;;;;;;1872852;76;21263;-73
2022/09/28 12:32:52;;;;;;;28.20;25.20;;;25.30;99.90;;;;;;1852236;76;21203;-74
2022/09/28 12:35:24;;;;;;;25.15;22.58;;;25.30;99.90;;;;;;1860916;76;21744;-73
2022/09/28 12:37:57;;;;;;;26.60;23.12;;;25.20;99.90;;;;;;1822479;77;21152;-73
2022/09/28 12:40:32;;;;;;;26.82;24.18;;;25.20;99.90;;;;;;1822776;77;21173;-73
2022/09/28 12:43:05;;;;;;;27.05;24.15;;;25.20;99.90;;;;;;1850526;76;21824;-74
2022/09/28 12:45:39;;;;;;;27.20;23.87;;;25.20;99.90;;;;;;1854369;76;21139;-74
2022/09/28 12:48:13;;;;;;;27.58;24.30;;;25.20;99.90;;;;;;1858022;76;21182;-74
2022/09/28 12:50:50;;;;;;;28.23;25.05;;;25.20;99.90;;;;;;1853971;76;21704;-74
2022/09/28 12:53:42;;;;;;;28.73;24.67;;;25.10;99.90;;;;;;1867514;76;21097;-73
2022/09/28 12:56:14;;;;;;;27.73;24.18;;;25.20;99.90;;;;;;1864276;76;21593;-74
2022/09/28 12:58:47;;;;;;;27.42;24.45;;;25.20;99.90;;;;;;1841305;76;21196;-74
2022/09/28 13:01:20;;;;;;;27.73;24.87;;;25.20;99.90;;;;;;1839543;76;21518;-73
2022/09/28 13:03:53;;;;;;;27.95;24.90;;;25.10;99.90;;;;;;1836207;76;21659;-73
2022/09/28 13:06:47;;;;;;;28.38;24.95;;;25.20;99.90;;;;;;1845526;76;21682;-74